createdAt,value
2022-08-03T00:00:38.774Z,96858.75
2022-08-03T00:03:07.577Z,96857.18
2022-08-03T00:05:37.146Z,96857.14
2022-08-03T00:08:05.531Z,96855.22
2022-08-03T00:10:35.413Z,96855.25
2022-08-03T00:13:04.622Z,96851.48
2022-08-03T00:15:32.826Z,96846.03
2022-08-03T00:18:01.539Z,96851.90
2022-08-03T00:20:30.418Z,96857.25
2022-08-03T00:22:58.861Z,96859.55
2022-08-03T00:25:27.487Z,96862.03
2022-08-03T00:27:56.374Z,96864.28
2022-08-03T00:30:30.962Z,96863.08
2022-08-03T00:32:59.939Z,96861.84
2022-08-03T00:35:49.228Z,96861.55
2022-08-03T00:38:19.482Z,96857.02
2022-08-03T00:40:47.824Z,96858.70
2022-08-03T00:43:16.927Z,96857.94
2022-08-03T00:45:45.167Z,96863.55
2022-08-03T00:48:19.661Z,96865.48
2022-08-03T00:51:07.301Z,96864.63
2022-08-03T00:53:37.502Z,96862.20
2022-08-03T00:56:06.623Z,96863.45
2022-08-03T00:58:39.631Z,96867.86
2022-08-03T01:01:08.875Z,96864.98
2022-08-03T01:03:37.098Z,96862.27
2022-08-03T01:06:38.316Z,96858.96
2022-08-03T01:09:28.042Z,96860.16
2022-08-03T01:12:28.967Z,96858.84
2022-08-03T01:15:12.455Z,96858.77
2022-08-03T01:18:03.822Z,96863.19
2022-08-03T01:20:35.804Z,96856.81
2022-08-03T01:23:22.975Z,96861.37
2022-08-03T01:26:16.048Z,96857.70
2022-08-03T01:29:18.858Z,96859.53
2022-08-03T01:33:00.249Z,96859.50
2022-08-03T01:34:57.642Z,96857.52
2022-08-03T01:37:35.373Z,96858.20
2022-08-03T01:40:09.579Z,96859.86
2022-08-03T01:42:40.285Z,96858.36
2022-08-03T01:45:12.618Z,96862.20
2022-08-03T01:47:42.755Z,96863.54
2022-08-03T01:50:13.893Z,96859.99
2022-08-03T01:52:46.059Z,96860.02
2022-08-03T01:55:19.838Z,96858.98
2022-08-03T01:58:06.063Z,96861.98
2022-08-03T02:00:39.932Z,96860.16
2022-08-03T02:03:10.863Z,96857.98
2022-08-03T02:05:41.390Z,96855.38
2022-08-03T02:08:13.408Z,96852.52
2022-08-03T02:10:43.494Z,96851.20
2022-08-03T02:13:13.030Z,96850.40
2022-08-03T02:15:42.910Z,96847.98
2022-08-03T02:18:12.107Z,96853.83
2022-08-03T02:20:43.266Z,96852.38
2022-08-03T02:23:11.673Z,96855.04
2022-08-03T02:25:46.139Z,96852.64
2022-08-03T02:28:20.430Z,96849.29
2022-08-03T02:30:55.250Z,96848.39
2022-08-03T02:33:32.686Z,96849.35
2022-08-03T02:36:02.396Z,96846.60
2022-08-03T02:38:37.114Z,96849.04
2022-08-03T02:41:09.298Z,96844.60
2022-08-03T02:44:06.271Z,96844.77
2022-08-03T02:46:34.748Z,96841.27
2022-08-03T02:49:40.690Z,96844.86
2022-08-03T02:51:55.640Z,96846.33
2022-08-03T02:54:26.728Z,96844.67
2022-08-03T02:56:58.851Z,96847.56
2022-08-03T02:59:30.199Z,96845.49
2022-08-03T03:02:02.602Z,96848.17
2022-08-03T03:04:33.261Z,96849.05
2022-08-03T03:07:04.397Z,96852.69
2022-08-03T03:09:40.299Z,96855.84
2022-08-03T03:12:12.362Z,96851.88
2022-08-03T03:14:41.142Z,96848.95
2022-08-03T03:17:11.571Z,96843.73
2022-08-03T03:19:41.610Z,96846.52
2022-08-03T03:22:11.082Z,96845.70
2022-08-03T03:24:41.905Z,96851.98
2022-08-03T03:27:10.564Z,96853.73
2022-08-03T03:29:45.157Z,96857.91
2022-08-03T03:32:14.209Z,96860.08
2022-08-03T03:34:44.228Z,96857.92
2022-08-03T03:37:12.773Z,96859.13
2022-08-03T03:39:40.907Z,96864.54
2022-08-03T03:42:09.089Z,96870.80
2022-08-03T03:44:37.606Z,96867.32
2022-08-03T03:47:05.898Z,96872.45
2022-08-03T03:49:34.588Z,96875.41
2022-08-03T03:52:03.435Z,96876.55
2022-08-03T03:54:42.824Z,96876.35
2022-08-03T03:57:12.966Z,96874.55
2022-08-03T03:59:44.043Z,96879.38
2022-08-03T04:02:12.682Z,96876.95
2022-08-03T04:04:59.421Z,96879.77
2022-08-03T04:07:46.508Z,96886.48
2022-08-03T04:10:43.486Z,96888.68
2022-08-03T04:13:15.366Z,96894.94
2022-08-03T04:15:48.172Z,96895.70
2022-08-03T04:18:19.268Z,96895.63
2022-08-03T04:20:50.266Z,96896.52
2022-08-03T04:23:22.654Z,96894.20
2022-08-03T04:25:53.593Z,96894.95
2022-08-03T04:28:30.543Z,96897.59
2022-08-03T04:31:03.648Z,96906.65
2022-08-03T04:33:34.829Z,96903.58
2022-08-03T04:36:07.823Z,96903.64
2022-08-03T04:38:56.088Z,96904.52
2022-08-03T04:41:27.224Z,96903.05
2022-08-03T04:43:58.028Z,96904.69
2022-08-03T04:46:33.355Z,96909.48
2022-08-03T04:49:02.528Z,96910.88
2022-08-03T04:51:32.111Z,96907.14
2022-08-03T04:54:00.756Z,96908.19
2022-08-03T04:56:28.991Z,96910.43
2022-08-03T04:58:57.299Z,96915.73
2022-08-03T05:01:25.780Z,96914.63
2022-08-03T05:03:54.228Z,96917.04
2022-08-03T05:06:22.344Z,96915.10
2022-08-03T05:08:53.522Z,96914.46
2022-08-03T05:11:22.567Z,96914.50
2022-08-03T05:13:50.745Z,96919.99
2022-08-03T05:16:19.267Z,96917.15
2022-08-03T05:18:47.448Z,96915.92
2022-08-03T05:21:17.089Z,96917.51
2022-08-03T05:23:45.406Z,96916.73
2022-08-03T05:26:13.642Z,96916.51
2022-08-03T05:28:50.787Z,96916.65
2022-08-03T05:31:20.085Z,96913.61
2022-08-03T05:33:49.608Z,96912.31
2022-08-03T05:36:17.806Z,96917.05
2022-08-03T05:38:46.169Z,96914.95
2022-08-03T05:41:21.813Z,96915.58
2022-08-03T05:43:55.964Z,96918.88
2022-08-03T05:46:24.127Z,96922.91
2022-08-03T05:48:52.512Z,96922.36
2022-08-03T05:51:20.891Z,96922.43
2022-08-03T05:53:49.393Z,96924.39
2022-08-03T05:56:17.850Z,96926.70
2022-08-03T05:58:47.928Z,96931.98
2022-08-03T06:01:17.525Z,96933.61
2022-08-03T06:03:46.441Z,96935.01
2022-08-03T06:06:16.003Z,96938.52
2022-08-03T06:08:45.787Z,96940.14
2022-08-03T06:11:13.917Z,96940.23
2022-08-03T06:13:42.370Z,96942.40
2022-08-03T06:16:10.907Z,96939.48
2022-08-03T06:18:40.654Z,96938.22
2022-08-03T06:21:14.651Z,96940.96
2022-08-03T06:23:52.807Z,96944.04
2022-08-03T06:26:22.209Z,96942.09
2022-08-03T06:42:44.347Z,96943.02
2022-08-03T06:45:14.662Z,96939.77
2022-08-03T06:47:43.322Z,96937.59
2022-08-03T06:50:16.898Z,96943.69
2022-08-03T06:52:46.623Z,96938.71
2022-08-03T06:55:14.884Z,96939.20
2022-08-03T06:57:43.850Z,96939.02
2022-08-03T07:00:12.913Z,96938.12
2022-08-03T07:02:41.514Z,96938.52
2022-08-03T07:05:10.896Z,96937.73
2022-08-03T07:07:40.706Z,96937.57
2022-08-03T07:10:12.022Z,96935.34
2022-08-03T07:12:56.194Z,96933.52
2022-08-03T07:15:53.970Z,96932.98
2022-08-03T07:18:14.291Z,96934.61
2022-08-03T07:20:42.742Z,96931.71
2022-08-03T07:23:11.999Z,96929.80
2022-08-03T07:25:47.756Z,96934.04
2022-08-03T07:28:16.619Z,96930.85
2022-08-03T07:30:45.095Z,96930.46
2022-08-03T07:33:13.414Z,96931.09
2022-08-03T07:35:41.760Z,96929.29
2022-08-03T07:38:09.928Z,96932.25
2022-08-03T07:40:40.991Z,96927.98
2022-08-03T07:43:12.650Z,96927.34
2022-08-03T07:45:40.872Z,96927.27
2022-08-03T07:48:12.380Z,96924.58
2022-08-03T07:50:41.098Z,96927.86
2022-08-03T07:53:09.332Z,96932.45
2022-08-03T07:55:37.578Z,96928.48
2022-08-03T07:58:12.720Z,96929.33
2022-08-03T08:00:41.172Z,96933.39
2022-08-03T08:03:09.357Z,96932.98
2022-08-03T08:05:37.890Z,96931.37
2022-08-03T08:08:07.217Z,96928.67
2022-08-03T08:10:35.554Z,96930.80
2022-08-03T08:13:04.911Z,96930.08
2022-08-03T08:15:33.123Z,96931.94
2022-08-03T08:18:02.805Z,96929.77
2022-08-03T08:20:36.536Z,96928.11
2022-08-03T08:23:19.963Z,96930.23
2022-08-03T08:25:57.033Z,96930.39
2022-08-03T08:28:31.174Z,96932.11
2022-08-03T08:31:02.440Z,96935.00
2022-08-03T08:33:54.208Z,96933.92
2022-08-03T08:36:19.787Z,96932.17
2022-08-03T08:38:48.819Z,96926.27
2022-08-03T08:41:17.402Z,96931.79
2022-08-03T08:43:45.561Z,96929.92
2022-08-03T08:46:22.947Z,96932.35
2022-08-03T08:48:53.961Z,96933.29
2022-08-03T08:51:50.953Z,96933.52
2022-08-03T08:54:18.473Z,96929.96
2022-08-03T08:56:48.712Z,96932.11
2022-08-03T08:59:18.499Z,96930.09
2022-08-03T09:01:46.714Z,96928.85
2022-08-03T09:04:15.126Z,96927.19
2022-08-03T09:06:58.568Z,96922.27
2022-08-03T09:10:10.019Z,96925.87
2022-08-03T09:12:41.171Z,96925.54
2022-08-03T09:15:36.034Z,96923.99
2022-08-03T09:18:05.084Z,96920.53
2022-08-03T09:20:34.964Z,96919.13
2022-08-03T09:23:59.290Z,96922.20
2022-08-03T09:26:01.955Z,96920.74
2022-08-03T09:28:56.578Z,96920.80
2022-08-03T09:31:37.170Z,96923.40
2022-08-03T09:34:16.678Z,96922.45
2022-08-03T09:36:47.129Z,96920.73
2022-08-03T09:39:40.948Z,96918.83
2022-08-03T09:42:14.755Z,96918.57
2022-08-03T09:44:49.556Z,96917.66
2022-08-03T09:47:36.754Z,96916.27
2022-08-03T09:50:13.466Z,96908.83
2022-08-03T09:52:49.948Z,96908.88
2022-08-03T09:56:30.905Z,96907.30
2022-08-03T09:58:10.840Z,96904.83
2022-08-03T10:01:23.820Z,96903.20
2022-08-03T10:04:02.738Z,96897.87
2022-08-03T10:06:33.143Z,96899.23
2022-08-03T10:09:27.636Z,96900.84
2022-08-03T10:11:55.997Z,96900.54
2022-08-03T10:14:26.607Z,96903.07
2022-08-03T10:16:54.778Z,96901.17
2022-08-03T10:19:23.145Z,96896.86
2022-08-03T10:21:58.094Z,96894.89
2022-08-03T10:24:29.677Z,96890.52
2022-08-03T10:27:01.716Z,96890.86
2022-08-03T10:29:32.562Z,96893.07
2022-08-03T10:32:04.652Z,96890.58
2022-08-03T10:34:42.605Z,96889.42
2022-08-03T10:37:16.445Z,96889.09
2022-08-03T10:39:54.163Z,96887.40
2022-08-03T10:42:26.516Z,96884.50
2022-08-03T10:45:07.117Z,96881.30
2022-08-03T10:47:36.204Z,96875.75
2022-08-03T10:50:05.321Z,96879.88
2022-08-03T10:52:39.654Z,96879.97
2022-08-03T10:56:01.694Z,96876.02
2022-08-03T10:58:56.900Z,96876.61
2022-08-03T11:02:01.698Z,96872.80
2022-08-03T11:04:30.506Z,96869.25
2022-08-03T11:07:18.103Z,96868.80
2022-08-03T11:09:52.274Z,96870.17
2022-08-03T11:12:30.505Z,96866.91
2022-08-03T11:15:03.195Z,96864.06
2022-08-03T11:17:33.491Z,96862.02
2022-08-03T11:20:01.978Z,96857.35
2022-08-03T11:22:51.105Z,96861.36
2022-08-03T11:25:55.046Z,96856.40
2022-08-03T11:28:30.545Z,96854.71
2022-08-03T11:31:49.320Z,96851.24
2022-08-03T11:34:18.819Z,96846.98
2022-08-03T11:37:23.658Z,96846.96
2022-08-03T11:39:55.082Z,96842.05
2022-08-03T11:42:23.496Z,96836.17
2022-08-03T11:44:56.985Z,96835.48
2022-08-03T11:47:27.981Z,96830.60
2022-08-03T11:50:00.938Z,96824.76
2022-08-03T11:52:36.806Z,96825.39
2022-08-03T11:55:10.649Z,96824.66
2022-08-03T11:59:01.264Z,96825.47
2022-08-03T12:00:30.438Z,96820.66
2022-08-03T12:03:12.045Z,96817.20
2022-08-03T12:05:42.100Z,96813.10
2022-08-03T12:08:29.088Z,96814.93
2022-08-03T12:11:00.169Z,96809.95
2022-08-03T12:14:05.773Z,96807.17
2022-08-03T12:16:29.077Z,96806.76
2022-08-03T12:19:02.969Z,96806.39
2022-08-03T12:21:31.885Z,96807.73
2022-08-03T12:24:03.162Z,96806.98
2022-08-03T12:26:58.816Z,96803.84
2022-08-03T12:29:28.074Z,96800.02
2022-08-03T12:31:56.533Z,96796.92
2022-08-03T12:34:24.913Z,96797.42
2022-08-03T12:37:00.454Z,96798.88
2022-08-03T12:39:31.492Z,96797.54
2022-08-03T12:41:59.822Z,96795.08
2022-08-03T12:44:35.367Z,96791.29
2022-08-03T12:47:06.918Z,96789.46
2022-08-03T12:49:56.638Z,96788.82
2022-08-03T12:52:29.259Z,96789.24
2022-08-03T12:55:01.149Z,96794.36
2022-08-03T12:57:42.761Z,96791.48
2022-08-03T13:00:21.401Z,96795.53
2022-08-03T13:05:57.867Z,96801.36
2022-08-03T13:08:26.500Z,96798.03
2022-08-03T13:10:54.876Z,96794.06
2022-08-03T13:13:43.485Z,96794.09
2022-08-03T13:16:15.800Z,96793.89
2022-08-03T13:18:48.170Z,96795.81
2022-08-03T13:21:16.915Z,96795.08
2022-08-03T13:23:46.459Z,96793.36
2022-08-03T13:26:14.752Z,96787.41
2022-08-03T13:28:43.021Z,96784.21
2022-08-03T13:31:11.503Z,96782.17
2022-08-03T13:33:40.961Z,96784.99
2022-08-03T13:36:09.208Z,96777.97
2022-08-03T13:38:37.429Z,96776.37
2022-08-03T13:41:06.305Z,96778.08
2022-08-03T13:43:34.455Z,96771.65
2022-08-03T13:46:02.814Z,96770.45
2022-08-03T13:48:31.010Z,96765.87
2022-08-03T13:51:21.874Z,96767.39
2022-08-03T13:53:52.452Z,96770.29
2022-08-03T13:56:21.016Z,96767.00
2022-08-03T13:58:49.300Z,96770.76
2022-08-03T14:01:29.679Z,96774.73
2022-08-03T14:04:06.260Z,96774.69
2022-08-03T14:06:49.815Z,96774.14
2022-08-03T14:09:18.120Z,96771.88
2022-08-03T14:12:06.921Z,96771.72
2022-08-03T14:14:34.759Z,96772.01
2022-08-03T14:17:02.888Z,96775.39
2022-08-03T14:19:32.569Z,96779.91
2022-08-03T14:22:21.713Z,96777.13
2022-08-03T14:24:49.880Z,96773.30
2022-08-03T14:27:19.868Z,96766.98
2022-08-03T14:29:48.192Z,96763.33
2022-08-03T14:32:16.477Z,96762.92
2022-08-03T14:34:44.770Z,96761.48
2022-08-03T14:37:13.275Z,96760.17
2022-08-03T14:42:30.138Z,96756.09
2022-08-03T14:45:03.400Z,96759.56
2022-08-03T14:48:23.420Z,96757.18
2022-08-03T14:50:38.677Z,96755.29
2022-08-03T14:53:10.238Z,96746.03
2022-08-03T14:55:50.836Z,96747.35
2022-08-03T14:58:22.059Z,96747.46
2022-08-03T15:00:52.873Z,96750.63
2022-08-03T15:03:25.078Z,96752.36
2022-08-03T15:05:55.972Z,96744.89
2022-08-03T15:08:26.493Z,96750.08
2022-08-03T15:10:55.113Z,96747.65
2022-08-03T15:13:23.598Z,96744.90
2022-08-03T15:15:52.234Z,96745.54
2022-08-03T15:18:20.612Z,96744.60
2022-08-03T15:20:50.942Z,96744.62
2022-08-03T15:23:19.727Z,96745.00
2022-08-03T15:26:28.010Z,96743.91
2022-08-03T15:28:37.520Z,96745.73
2022-08-03T15:31:07.335Z,96745.33
2022-08-03T15:33:35.549Z,96748.01
2022-08-03T15:36:05.017Z,96739.41
2022-08-03T15:38:33.197Z,96739.55
2022-08-03T15:41:01.446Z,96735.38
2022-08-03T15:43:29.737Z,96737.57
2022-08-03T15:46:27.728Z,96734.45
2022-08-03T15:48:47.335Z,96730.85
2022-08-03T15:51:15.746Z,96732.63
2022-08-03T15:53:44.130Z,96730.36
2022-08-03T15:56:16.770Z,96732.48
2022-08-03T15:59:10.431Z,96731.45
2022-08-03T16:01:35.506Z,96732.45
2022-08-03T16:04:05.459Z,96733.43
2022-08-03T16:06:35.769Z,96732.56
2022-08-03T16:09:24.053Z,96729.91
2022-08-03T16:11:55.826Z,96729.89
2022-08-03T16:14:34.291Z,96731.58
2022-08-03T16:17:06.261Z,96735.39
2022-08-03T16:19:34.451Z,96734.77
2022-08-03T16:22:04.011Z,96735.95
2022-08-03T16:24:32.460Z,96737.36
2022-08-03T16:27:01.697Z,96734.95
2022-08-03T16:29:30.241Z,96737.52
2022-08-03T16:32:09.302Z,96738.02
2022-08-03T16:34:39.868Z,96738.58
2022-08-03T16:37:35.719Z,96741.65
2022-08-03T16:39:58.327Z,96739.13
2022-08-03T16:42:27.571Z,96741.35
2022-08-03T16:44:55.954Z,96746.48
2022-08-03T16:47:24.256Z,96748.75
2022-08-03T16:49:54.656Z,96746.88
2022-08-03T16:52:25.673Z,96749.55
2022-08-03T16:54:55.381Z,96754.63
2022-08-03T16:57:56.461Z,96759.56
2022-08-03T17:00:34.397Z,96762.20
2022-08-03T17:03:18.656Z,96760.48
2022-08-03T17:05:52.358Z,96762.20
2022-08-03T17:08:26.528Z,96763.90
2022-08-03T17:10:57.757Z,96764.58
2022-08-03T17:13:38.857Z,96765.51
2022-08-03T17:16:12.190Z,96769.27
2022-08-03T17:18:56.203Z,96773.27
2022-08-03T17:21:30.883Z,96775.80
2022-08-03T17:24:03.157Z,96775.50
2022-08-03T17:26:35.147Z,96777.43
2022-08-03T17:29:12.873Z,96776.44
2022-08-03T17:31:48.899Z,96772.95
2022-08-03T17:34:19.779Z,96774.95
2022-08-03T17:37:05.883Z,96780.14
2022-08-03T17:42:31.003Z,96781.04
2022-08-03T17:45:03.480Z,96782.27
2022-08-03T17:47:43.299Z,96782.95
2022-08-03T17:50:25.404Z,96784.93
2022-08-03T17:53:24.463Z,96786.00
2022-08-03T17:56:04.845Z,96790.41
2022-08-03T17:58:58.211Z,96790.95
2022-08-03T18:02:03.589Z,96794.43
2022-08-03T18:04:46.578Z,96797.98
2022-08-03T18:07:40.901Z,96799.90
2022-08-03T18:10:15.031Z,96800.20
2022-08-03T18:12:52.867Z,96802.95
2022-08-03T18:15:34.937Z,96809.58
2022-08-03T18:18:10.538Z,96816.06
2022-08-03T18:20:42.130Z,96818.02
2022-08-03T18:23:20.481Z,96821.30
2022-08-03T18:25:58.194Z,96824.12
2022-08-03T18:28:29.028Z,96828.04
2022-08-03T18:30:58.328Z,96824.48
2022-08-03T18:34:17.024Z,96824.83
2022-08-03T18:36:22.133Z,96827.44
2022-08-03T18:39:02.740Z,96826.42
2022-08-03T18:41:34.703Z,96833.01
2022-08-03T18:44:37.561Z,96838.55
2022-08-03T18:47:51.491Z,96842.48
2022-08-03T18:50:38.987Z,96848.11
2022-08-03T18:53:19.741Z,96849.17
2022-08-03T18:56:02.167Z,96848.99
2022-08-03T18:58:56.026Z,96852.09
2022-08-03T19:02:00.520Z,96853.69
2022-08-03T19:04:53.966Z,96857.60
2022-08-03T19:07:27.741Z,96860.95
2022-08-03T19:10:15.674Z,96860.96
2022-08-03T19:12:56.440Z,96857.89
2022-08-03T19:15:36.478Z,96864.13
2022-08-03T19:18:12.184Z,96864.20
2022-08-03T19:20:46.964Z,96867.00
2022-08-03T19:23:17.634Z,96866.29
2022-08-03T19:25:46.421Z,96869.97
2022-08-03T19:28:16.860Z,96869.66
2022-08-03T19:30:53.752Z,96872.77
2022-08-03T19:33:29.901Z,96872.10
2022-08-03T19:35:59.194Z,96875.73
2022-08-03T19:38:29.786Z,96878.98
2022-08-03T19:41:02.110Z,96877.67
2022-08-03T19:43:49.554Z,96882.44
2022-08-03T19:46:30.690Z,96884.21
2022-08-03T19:49:15.330Z,96882.10
2022-08-03T19:52:01.084Z,96880.68
2022-08-03T19:54:53.200Z,96882.74
2022-08-03T19:57:27.256Z,96879.77
2022-08-03T19:59:57.925Z,96880.44
2022-08-03T20:02:29.871Z,96881.67
2022-08-03T20:05:05.644Z,96877.85
2022-08-03T20:07:48.235Z,96876.67
2022-08-03T20:10:18.496Z,96880.95
2022-08-03T20:12:49.930Z,96877.23
2022-08-03T20:15:31.199Z,96874.61
2022-08-03T20:18:01.194Z,96875.53
2022-08-03T20:20:36.405Z,96872.08
2022-08-03T20:23:16.120Z,96870.48
2022-08-03T20:25:58.274Z,96870.82
2022-08-03T20:28:50.158Z,96870.49
2022-08-03T20:31:23.824Z,96870.55
2022-08-03T20:34:00.595Z,96869.59
2022-08-03T20:36:29.154Z,96871.17
2022-08-03T20:38:59.068Z,96870.27
2022-08-03T20:41:28.144Z,96871.52
2022-08-03T20:44:01.193Z,96870.89
2022-08-03T20:46:41.418Z,96872.65
2022-08-03T20:49:19.697Z,96869.43
2022-08-03T20:51:53.449Z,96867.39
2022-08-03T20:54:31.122Z,96865.45
2022-08-03T20:57:04.326Z,96864.95
2022-08-03T20:59:47.032Z,96865.26
2022-08-03T21:02:19.789Z,96864.29
2022-08-03T21:05:09.164Z,96867.88
2022-08-03T21:07:45.566Z,96869.86
2022-08-03T21:10:37.847Z,96867.49
2022-08-03T21:13:23.876Z,96868.67
2022-08-03T21:16:02.559Z,96869.90
2022-08-03T21:18:46.422Z,96870.68
2022-08-03T21:21:16.495Z,96873.73
2022-08-03T21:23:49.637Z,96877.67
2022-08-03T21:26:19.989Z,96881.14
2022-08-03T21:28:50.253Z,96885.11
2022-08-03T21:31:24.297Z,96887.04
2022-08-03T21:34:00.938Z,96891.07
2022-08-03T21:36:35.108Z,96891.12
2022-08-03T21:39:05.977Z,96893.15
2022-08-03T21:41:35.488Z,96893.54
2022-08-03T21:44:06.181Z,96896.05
2022-08-03T21:46:41.338Z,96895.05
2022-08-03T21:50:07.750Z,96893.24
2022-08-03T21:52:05.599Z,96896.23
2022-08-03T21:54:41.182Z,96899.98
2022-08-03T21:57:25.455Z,96902.03
2022-08-03T21:59:57.207Z,96901.29
2022-08-03T22:02:32.243Z,96901.44
2022-08-03T22:05:04.978Z,96900.36
2022-08-03T22:07:34.827Z,96904.19
2022-08-03T22:10:05.916Z,96900.88
2022-08-03T22:12:35.506Z,96901.76
2022-08-03T22:15:07.874Z,96902.66
2022-08-03T22:17:55.837Z,96902.60
2022-08-03T22:20:25.592Z,96899.91
2022-08-03T22:22:57.210Z,96903.80
2022-08-03T22:25:31.825Z,96903.39
2022-08-03T22:28:03.422Z,96901.27
2022-08-03T22:30:33.300Z,96895.27
2022-08-03T22:33:03.905Z,96897.02
2022-08-03T22:35:46.400Z,96902.48
2022-08-03T22:38:18.543Z,96904.80
2022-08-03T22:40:51.261Z,96903.59
2022-08-03T22:43:24.973Z,96904.05
2022-08-03T22:46:09.131Z,96903.89
2022-08-03T22:48:41.009Z,96905.25
2022-08-03T22:51:10.536Z,96903.86
2022-08-03T22:53:40.463Z,96905.37
2022-08-03T22:56:09.236Z,96907.34
2022-08-03T22:58:37.514Z,96911.48
2022-08-03T23:01:11.755Z,96913.31
2022-08-03T23:04:00.341Z,96910.35
2022-08-03T23:06:45.390Z,96912.97
2022-08-03T23:09:14.303Z,96911.14
2022-08-03T23:11:46.044Z,96912.83
2022-08-03T23:14:18.315Z,96908.84
2022-08-03T23:16:48.031Z,96908.51
2022-08-03T23:19:25.620Z,96908.71
2022-08-03T23:22:03.442Z,96911.95
2022-08-03T23:24:36.833Z,96912.79
2022-08-03T23:27:06.986Z,96911.05
2022-08-03T23:29:37.483Z,96908.20
2022-08-03T23:32:06.813Z,96909.98
2022-08-03T23:34:57.312Z,96912.56
2022-08-03T23:37:26.168Z,96915.33
2022-08-03T23:39:57.174Z,96917.48
2022-08-03T23:42:26.583Z,96918.27
2022-08-03T23:45:05.517Z,96917.86
2022-08-03T23:47:46.426Z,96920.89
2022-08-03T23:50:17.037Z,96923.40
2022-08-03T23:53:17.212Z,96922.08
2022-08-03T23:56:13.603Z,96912.90
2022-08-03T23:59:13.778Z,96920.61
